Time;durP1;ratioP1;P1;durP2;ratioP2;P2;SDS_P1;SDS_P2;PMS_P1;PMS_P2;Temp;Humidity;BMP_temperature;BMP_pressure;BME280_temperature;BME280_humidity;BME280_pressure;Samples;Min_cycle;Max_cycle;Signal;HPM_P1;HPM_P2
2022/11/15 00:00:53;;;;;;;35.05;24.15;;;7.10;99.90;;;;;;5073782;28;20052;-29
2022/11/15 00:03:27;;;;;;;37.15;23.73;;;7.20;99.90;;;;;;5073786;28;20040;-31
2022/11/15 00:05:53;;;;;;;37.58;23.65;;;7.10;99.90;;;;;;5072824;28;20444;-29
2022/11/15 00:08:19;;;;;;;37.00;23.23;;;7.00;99.90;;;;;;5073595;28;20370;-29
2022/11/15 00:11:01;;;;;;;37.92;23.85;;;6.90;99.90;;;;;;5055631;28;20041;-29
2022/11/15 00:13:28;;;;;;;35.50;23.70;;;6.90;99.90;;;;;;5074161;28;20040;-29
2022/11/15 00:16:00;;;;;;;37.85;23.73;;;6.70;99.90;;;;;;5073622;28;20044;-29
2022/11/15 00:18:27;;;;;;;38.92;23.90;;;6.60;99.90;;;;;;5074145;28;20044;-29
2022/11/15 00:20:52;;;;;;;38.10;24.42;;;6.50;99.90;;;;;;5073810;28;20436;-29
2022/11/15 00:23:18;;;;;;;39.78;24.30;;;6.30;99.90;;;;;;5072378;28;20136;-29
2022/11/15 00:25:44;;;;;;;37.40;23.83;;;6.10;99.90;;;;;;5073529;28;20097;-29
2022/11/15 00:28:10;;;;;;;38.20;25.08;;;6.10;99.90;;;;;;5073572;28;20130;-29
2022/11/15 00:30:36;;;;;;;40.88;25.25;;;6.00;99.90;;;;;;5072309;28;20123;-29
2022/11/15 00:33:05;;;;;;;40.10;25.73;;;5.90;99.90;;;;;;5056355;28;20449;-28
2022/11/15 00:35:33;;;;;;;45.28;26.10;;;5.80;99.90;;;;;;5073462;28;20059;-28
2022/11/15 00:37:59;;;;;;;44.83;26.08;;;5.80;99.90;;;;;;5073127;28;20504;-28
2022/11/15 00:40:25;;;;;;;41.42;25.83;;;5.80;99.90;;;;;;5073743;28;20066;-28
2022/11/15 00:42:51;;;;;;;45.28;27.45;;;5.80;99.90;;;;;;5072206;28;20571;-29
2022/11/15 00:45:16;;;;;;;49.28;27.90;;;5.90;99.90;;;;;;5073885;28;20048;-29
2022/11/15 00:47:45;;;;;;;42.88;26.63;;;6.00;99.90;;;;;;5072385;28;20048;-29
2022/11/15 00:50:12;;;;;;;47.42;28.10;;;6.10;99.90;;;;;;5073166;28;20118;-29
2022/11/15 00:52:37;;;;;;;44.78;25.92;;;6.20;99.90;;;;;;5072138;28;20076;-30
2022/11/15 00:55:03;;;;;;;43.22;25.73;;;6.30;99.90;;;;;;5072291;28;20482;-29
2022/11/15 00:57:29;;;;;;;39.35;25.10;;;6.40;99.90;;;;;;5072554;28;20080;-29
2022/11/15 00:59:55;;;;;;;42.63;26.52;;;6.50;99.90;;;;;;5072485;28;20045;-29
2022/11/15 01:02:20;;;;;;;41.97;26.67;;;6.60;99.90;;;;;;5071980;28;20040;-29
2022/11/15 01:04:46;;;;;;;37.10;24.80;;;6.70;99.90;;;;;;5073720;28;20080;-29
2022/11/15 01:07:12;;;;;;;35.55;24.83;;;6.70;99.90;;;;;;5072442;28;20475;-29
2022/11/15 01:09:38;;;;;;;34.25;22.83;;;6.80;99.90;;;;;;5073075;28;20406;-29
2022/11/15 01:12:04;;;;;;;39.67;24.52;;;6.90;99.90;;;;;;5073080;28;20059;-29
2022/11/15 01:14:30;;;;;;;33.72;22.58;;;6.90;99.90;;;;;;5072827;28;20502;-29
2022/11/15 01:16:56;;;;;;;31.45;22.33;;;6.90;99.90;;;;;;5072990;28;20048;-29
2022/11/15 01:19:22;;;;;;;32.00;22.17;;;7.00;99.90;;;;;;5073037;28;20386;-29
2022/11/15 01:21:51;;;;;;;34.10;23.17;;;7.00;99.90;;;;;;5038028;28;20064;-29
2022/11/15 01:24:17;;;;;;;33.60;22.00;;;7.00;99.90;;;;;;5073243;28;20045;-29
2022/11/15 01:26:42;;;;;;;31.67;22.48;;;7.00;99.90;;;;;;5077408;28;20101;-29
2022/11/15 01:29:08;;;;;;;32.72;21.63;;;7.00;99.90;;;;;;5075343;28;20486;-29
2022/11/15 01:31:34;;;;;;;32.92;22.77;;;7.10;99.90;;;;;;5077312;28;20051;-30
2022/11/15 01:33:59;;;;;;;34.75;24.23;;;7.10;99.90;;;;;;5076474;28;20095;-29
2022/11/15 01:36:25;;;;;;;35.30;23.77;;;7.00;99.90;;;;;;5076441;28;20055;-29
2022/11/15 01:38:55;;;;;;;32.13;23.55;;;7.10;99.90;;;;;;5075378;28;20048;-29
2022/11/15 01:41:25;;;;;;;31.85;22.58;;;7.00;99.90;;;;;;5076358;28;20049;-29
2022/11/15 01:43:56;;;;;;;33.75;23.63;;;7.10;99.90;;;;;;5075430;28;20080;-30
2022/11/15 01:46:28;;;;;;;31.30;23.30;;;7.10;99.90;;;;;;5076273;28;20052;-29
2022/11/15 01:48:55;;;;;;;33.38;24.50;;;7.10;99.90;;;;;;5058625;28;20380;-29
2022/11/15 01:51:25;;;;;;;36.33;24.23;;;7.00;99.90;;;;;;5076998;28;20048;-29
2022/11/15 01:53:55;;;;;;;31.88;23.63;;;7.00;99.90;;;;;;5076162;28;20131;-29
2022/11/15 01:56:25;;;;;;;36.97;26.05;;;7.00;99.90;;;;;;5076053;28;20056;-29
2022/11/15 01:58:52;;;;;;;35.65;25.30;;;7.00;99.90;;;;;;5074814;28;20041;-29
2022/11/15 02:01:18;;;;;;;37.40;26.42;;;7.00;99.90;;;;;;5059112;28;20045;-29
2022/11/15 02:04:02;;;;;;;39.67;26.63;;;7.00;99.90;;;;;;5058073;28;20045;-29
2022/11/15 02:06:27;;;;;;;33.53;23.85;;;7.00;99.90;;;;;;5074792;28;20053;-29
2022/11/15 02:08:54;;;;;;;37.78;26.55;;;6.90;99.90;;;;;;5074697;28;20040;-29
2022/11/15 02:11:19;;;;;;;32.67;24.08;;;6.90;99.90;;;;;;5075693;28;20044;-28
2022/11/15 02:13:45;;;;;;;33.45;24.10;;;6.90;99.90;;;;;;5074763;28;20475;-29
2022/11/15 02:16:29;;;;;;;34.95;25.00;;;6.80;99.90;;;;;;5075136;28;20382;-29
2022/11/15 02:18:55;;;;;;;35.80;23.08;;;6.90;99.90;;;;;;5076132;28;20045;-29
2022/11/15 02:21:27;;;;;;;33.58;23.73;;;6.90;99.90;;;;;;5074074;28;20130;-30
2022/11/15 02:24:19;;;;;;;39.30;25.52;;;6.80;99.90;;;;;;5075648;28;20583;-29
2022/11/15 02:27:09;;;;;;;35.47;24.58;;;6.80;99.90;;;;;;5075637;28;20437;-28
2022/11/15 02:29:57;;;;;;;38.30;24.80;;;6.90;99.90;;;;;;5075455;28;20052;-28
2022/11/15 02:32:45;;;;;;;35.55;23.55;;;6.80;99.90;;;;;;5074749;28;20470;-29
2022/11/15 02:35:40;;;;;;;33.33;22.52;;;6.80;99.90;;;;;;5054399;28;20536;-28
2022/11/15 02:38:22;;;;;;;34.83;23.08;;;6.80;99.90;;;;;;5075457;28;20363;-29
2022/11/15 02:40:56;;;;;;;28.60;19.48;;;6.80;99.90;;;;;;5075235;28;20048;-29
2022/11/15 02:46:22;;;;;;;;;;;6.80;99.90;;;;;;5076481;28;20072;-29
2022/11/15 02:48:48;;;;;;;34.13;19.60;;;6.70;99.90;;;;;;5075118;28;19926;-29
2022/11/15 02:51:16;;;;;;;33.55;21.95;;;6.80;99.90;;;;;;5075529;28;20398;-29
2022/11/15 02:53:41;;;;;;;33.97;21.42;;;6.70;99.90;;;;;;5073760;28;20048;-29
2022/11/15 02:56:11;;;;;;;40.72;23.85;;;6.70;99.90;;;;;;5074780;28;20048;-29
2022/11/15 02:59:04;;;;;;;35.95;22.50;;;6.70;99.90;;;;;;5074484;28;20037;-29
2022/11/15 03:01:59;;;;;;;37.88;25.00;;;6.70;99.90;;;;;;5074928;28;20045;-29
2022/11/15 03:04:40;;;;;;;42.20;24.85;;;6.70;99.90;;;;;;5074789;28;20058;-29
2022/11/15 03:07:08;;;;;;;38.80;23.88;;;6.70;99.90;;;;;;5075278;28;20048;-28
2022/11/15 03:09:40;;;;;;;42.13;24.92;;;6.80;99.90;;;;;;5057044;28;20049;-28
2022/11/15 03:12:16;;;;;;;42.40;24.35;;;6.70;99.90;;;;;;5073551;28;20394;-29
2022/11/15 03:14:58;;;;;;;48.97;27.75;;;6.70;99.90;;;;;;5075185;28;20083;-28
2022/11/15 03:17:26;;;;;;;44.65;26.58;;;6.70;99.90;;;;;;5075027;28;20060;-29
2022/11/15 03:20:01;;;;;;;46.28;24.67;;;6.70;99.90;;;;;;5073233;28;20080;-29
2022/11/15 03:22:29;;;;;;;44.75;25.95;;;6.70;99.90;;;;;;5075264;28;20056;-29
2022/11/15 03:25:00;;;;;;;46.75;27.02;;;6.70;99.90;;;;;;5074581;28;20413;-29
2022/11/15 03:27:33;;;;;;;46.50;25.60;;;6.80;99.90;;;;;;5073242;28;20067;-29
2022/11/15 03:30:03;;;;;;;44.38;25.60;;;6.80;99.90;;;;;;5074152;28;20090;-29
2022/11/15 03:32:33;;;;;;;46.20;26.45;;;6.70;99.90;;;;;;5074823;28;20040;-29
2022/11/15 03:35:07;;;;;;;46.95;26.17;;;6.80;99.90;;;;;;5074156;28;20052;-29
2022/11/15 03:37:57;;;;;;;50.42;26.13;;;6.80;99.90;;;;;;5074167;28;20063;-28
2022/11/15 03:40:29;;;;;;;48.78;26.02;;;6.80;99.90;;;;;;5074137;28;20127;-29
2022/11/15 03:43:25;;;;;;;47.70;26.70;;;6.80;99.90;;;;;;5072544;28;20129;-30
2022/11/15 03:46:00;;;;;;;50.70;26.95;;;6.80;99.90;;;;;;5054661;28;20055;-29
2022/11/15 03:48:56;;;;;;;45.00;25.13;;;6.90;99.90;;;;;;5072642;28;20190;-29
2022/11/15 03:51:21;;;;;;;51.03;26.55;;;6.90;99.90;;;;;;5072867;28;20092;-29
2022/11/15 03:53:47;;;;;;;44.83;26.33;;;6.90;99.90;;;;;;5073569;28;20458;-29
2022/11/15 03:56:13;;;;;;;52.28;26.38;;;6.90;99.90;;;;;;5074084;28;20127;-29
2022/11/15 03:58:38;;;;;;;49.05;26.40;;;6.90;99.90;;;;;;5073766;28;20040;-29
2022/11/15 04:01:04;;;;;;;50.42;27.85;;;7.00;99.90;;;;;;5074350;28;20383;-29
2022/11/15 04:03:30;;;;;;;53.05;26.08;;;7.00;99.90;;;;;;5073178;28;20377;-29
2022/11/15 04:05:55;;;;;;;55.58;27.77;;;7.00;99.90;;;;;;5073797;28;20045;-29
2022/11/15 04:08:21;;;;;;;51.58;26.88;;;7.00;99.90;;;;;;5072481;28;20437;-29
2022/11/15 04:10:49;;;;;;;48.05;26.75;;;7.00;99.90;;;;;;5072913;28;20045;-29
2022/11/15 04:13:14;;;;;;;51.05;27.05;;;7.10;99.90;;;;;;5073670;28;20045;-29
2022/11/15 04:15:40;;;;;;;54.15;27.13;;;7.10;99.90;;;;;;5072407;28;20445;-29
2022/11/15 04:18:06;;;;;;;60.00;27.65;;;7.10;99.90;;;;;;5073534;28;20044;-29
2022/11/15 04:26:05;;;;;;;57.65;27.48;;;7.10;99.90;;;;;;5074468;28;20125;-28
2022/11/15 04:28:31;;;;;;;64.05;28.92;;;7.20;99.90;;;;;;5073234;28;20397;-29
2022/11/15 04:30:57;;;;;;;58.55;26.73;;;7.20;99.90;;;;;;5073562;28;20127;-28
2022/11/15 04:33:23;;;;;;;66.65;29.85;;;7.20;99.90;;;;;;5073513;28;20098;-29
2022/11/15 04:38:35;;;;;;;63.88;29.80;;;7.20;99.90;;;;;;5058064;28;20060;-29
2022/11/15 04:41:01;;;;;;;70.18;30.23;;;7.30;99.90;;;;;;5072191;28;20406;-29
2022/11/15 04:43:28;;;;;;;61.55;29.25;;;7.30;99.90;;;;;;5038901;28;20466;-28
2022/11/15 04:45:54;;;;;;;74.45;30.75;;;7.30;99.90;;;;;;5073337;28;20550;-29
2022/11/15 04:48:20;;;;;;;61.75;28.50;;;7.30;99.90;;;;;;5073359;28;20040;-29
2022/11/15 04:50:48;;;;;;;68.07;29.83;;;7.30;99.90;;;;;;5073324;28;20044;-28
2022/11/15 04:53:13;;;;;;;63.78;29.88;;;7.30;99.90;;;;;;5073312;28;20049;-29
2022/11/15 04:55:39;;;;;;;63.83;29.08;;;7.40;99.90;;;;;;5073346;28;20048;-29
2022/11/15 04:58:05;;;;;;;61.85;28.60;;;7.40;99.90;;;;;;5071963;28;20049;-29
2022/11/15 05:00:31;;;;;;;72.63;29.52;;;7.40;99.90;;;;;;5075515;28;20078;-29
2022/11/15 05:05:41;;;;;;;64.28;30.73;;;7.50;99.90;;;;;;5077372;28;20107;-29
2022/11/15 05:08:07;;;;;;;68.38;31.58;;;7.50;99.90;;;;;;5077483;28;20382;-29
2022/11/15 05:10:33;;;;;;;66.30;29.73;;;7.50;99.90;;;;;;5077335;28;20048;-29
2022/11/15 05:12:59;;;;;;;68.03;29.67;;;7.50;99.90;;;;;;5076535;28;20109;-29
2022/11/15 05:15:24;;;;;;;73.15;32.63;;;7.60;99.90;;;;;;5076834;28;20049;-29
2022/11/15 05:17:50;;;;;;;79.28;33.58;;;7.60;99.90;;;;;;5076685;28;20045;-30
2022/11/15 05:20:16;;;;;;;76.63;32.30;;;7.60;99.90;;;;;;5076483;28;20063;-29
2022/11/15 05:22:41;;;;;;;76.53;33.90;;;7.60;99.90;;;;;;5076765;28;20137;-29
2022/11/15 05:25:08;;;;;;;85.75;34.47;;;7.60;99.90;;;;;;5076888;28;20087;-29
2022/11/15 05:27:34;;;;;;;82.15;32.92;;;7.70;99.90;;;;;;5076597;28;20063;-29
2022/11/15 05:30:00;;;;;;;96.30;34.60;;;7.70;99.90;;;;;;5075358;28;20060;-29
2022/11/15 05:32:26;;;;;;;90.22;34.25;;;7.70;99.90;;;;;;5076505;28;20395;-29
2022/11/15 05:34:52;;;;;;;87.72;35.20;;;7.80;99.90;;;;;;5077105;28;20076;-29
2022/11/15 05:37:18;;;;;;;90.38;35.85;;;7.80;99.90;;;;;;5076224;28;20044;-29
2022/11/15 05:39:43;;;;;;;87.38;37.00;;;7.80;99.90;;;;;;5076189;28;20075;-28
2022/11/15 05:42:12;;;;;;;102.03;36.45;;;7.80;99.90;;;;;;5076695;28;20048;-30
2022/11/15 05:44:41;;;;;;;95.75;37.53;;;7.80;99.90;;;;;;5076492;28;20044;-29
2022/11/15 05:47:10;;;;;;;110.65;39.08;;;7.90;99.90;;;;;;5075765;28;20410;-29
2022/11/15 05:49:38;;;;;;;111.57;39.20;;;8.00;99.90;;;;;;5076069;28;20037;-29
2022/11/15 05:52:06;;;;;;;126.53;42.50;;;7.90;99.90;;;;;;5076093;28;20076;-29
2022/11/15 05:54:33;;;;;;;141.75;43.00;;;7.90;99.90;;;;;;5074837;28;20098;-29
2022/11/15 05:57:00;;;;;;;140.35;42.80;;;8.00;99.90;;;;;;5076047;28;20505;-29
2022/11/15 05:59:28;;;;;;;132.02;42.42;;;8.00;99.90;;;;;;5074627;28;20040;-29
2022/11/15 06:01:53;;;;;;;160.98;47.85;;;8.10;99.90;;;;;;5076487;28;20410;-29
2022/11/15 06:04:19;;;;;;;136.10;43.60;;;8.10;99.90;;;;;;5074737;28;20044;-29
2022/11/15 06:06:45;;;;;;;167.65;47.08;;;8.10;99.90;;;;;;5075340;28;20047;-29
2022/11/15 06:09:10;;;;;;;154.40;44.78;;;8.20;99.90;;;;;;5076703;28;20048;-29
2022/11/15 06:11:36;;;;;;;178.43;49.03;;;8.20;99.90;;;;;;5075722;28;20044;-29
2022/11/15 06:14:02;;;;;;;169.35;47.33;;;8.20;99.90;;;;;;5075504;28;20498;-30
2022/11/15 06:16:27;;;;;;;191.30;49.20;;;8.20;99.90;;;;;;5075767;28;20063;-29
2022/11/15 06:18:53;;;;;;;173.82;47.22;;;8.10;99.90;;;;;;5076205;28;20122;-29
2022/11/15 06:21:19;;;;;;;188.73;49.35;;;8.30;99.90;;;;;;5074476;28;20077;-29
2022/11/15 06:23:45;;;;;;;184.32;50.00;;;8.20;99.90;;;;;;5075618;28;20572;-29
2022/11/15 06:26:10;;;;;;;201.20;52.70;;;8.20;99.90;;;;;;5076147;28;20206;-29
2022/11/15 06:28:36;;;;;;;206.75;54.33;;;8.30;99.90;;;;;;5074759;28;20135;-29
2022/11/15 06:31:20;;;;;;;190.27;51.30;;;8.30;99.90;;;;;;5075511;28;20136;-29
2022/11/15 06:33:47;;;;;;;190.60;53.47;;;8.50;99.90;;;;;;5075424;28;20055;-29
2022/11/15 06:36:16;;;;;;;198.20;52.80;;;8.40;99.90;;;;;;5057752;28;20165;-29
2022/11/15 06:38:41;;;;;;;207.63;54.72;;;8.40;99.90;;;;;;5075515;28;20053;-30
2022/11/15 06:41:09;;;;;;;206.05;53.85;;;8.50;99.90;;;;;;5074052;28;20486;-29
2022/11/15 06:43:35;;;;;;;208.80;55.92;;;8.50;99.90;;;;;;5073912;28;20052;-29
2022/11/15 06:46:02;;;;;;;214.85;56.20;;;8.60;99.90;;;;;;5075157;28;20479;-29
2022/11/15 06:48:29;;;;;;;244.02;60.00;;;8.60;99.90;;;;;;5074141;28;20395;-29
2022/11/15 06:51:00;;;;;;;240.65;57.80;;;8.70;99.90;;;;;;5074506;28;20044;-29
2022/11/15 06:53:26;;;;;;;203.80;56.30;;;8.80;99.90;;;;;;5075012;28;20482;-29
2022/11/15 06:55:53;;;;;;;211.35;58.45;;;8.80;99.90;;;;;;5073979;28;20041;-29
2022/11/15 06:58:20;;;;;;;202.15;58.42;;;8.90;99.90;;;;;;5074808;28;20040;-30
2022/11/15 07:00:46;;;;;;;228.63;60.08;;;8.90;99.90;;;;;;5073817;28;20044;-29
2022/11/15 07:03:11;;;;;;;182.80;54.20;;;9.00;99.90;;;;;;5074753;28;20182;-29
2022/11/15 07:05:37;;;;;;;202.20;56.72;;;9.00;99.90;;;;;;5074796;28;20064;-29
2022/11/15 07:08:03;;;;;;;184.05;56.53;;;9.10;99.90;;;;;;5075235;28;20482;-29
2022/11/15 07:10:29;;;;;;;183.40;55.90;;;9.00;99.90;;;;;;5074703;28;20040;-29
2022/11/15 07:12:55;;;;;;;197.20;58.72;;;9.10;99.90;;;;;;5056926;28;20084;-29
2022/11/15 07:15:23;;;;;;;174.50;55.70;;;9.20;99.90;;;;;;5074535;28;20051;-30
2022/11/15 07:17:50;;;;;;;172.25;55.10;;;9.10;99.90;;;;;;5073205;28;20040;-29
2022/11/15 07:20:16;;;;;;;162.32;56.30;;;9.20;99.90;;;;;;5074406;28;20060;-29
2022/11/15 07:22:42;;;;;;;169.25;54.35;;;9.30;99.90;;;;;;5074748;28;20049;-29
2022/11/15 07:25:08;;;;;;;182.25;57.28;;;9.30;99.90;;;;;;5074985;28;20379;-29
2022/11/15 07:27:34;;;;;;;173.68;56.33;;;9.40;99.90;;;;;;5074151;28;20058;-29
2022/11/15 07:30:00;;;;;;;170.45;52.22;;;9.50;99.90;;;;;;5073282;28;20091;-29
2022/11/15 07:32:26;;;;;;;158.23;53.05;;;9.50;99.90;;;;;;5074322;28;20084;-29
2022/11/15 07:34:52;;;;;;;162.07;55.67;;;9.40;99.90;;;;;;5073006;28;20044;-29
2022/11/15 07:37:18;;;;;;;171.90;54.47;;;9.50;99.90;;;;;;5074031;28;20044;-29
2022/11/15 07:39:44;;;;;;;160.20;54.30;;;9.50;99.90;;;;;;5074104;28;20044;-29
2022/11/15 07:44:53;;;;;;;159.10;51.28;;;9.50;99.90;;;;;;5074076;28;20117;-31
2022/11/15 07:47:20;;;;;;;145.55;51.03;;;9.60;99.90;;;;;;5074006;28;20052;-29
2022/11/15 07:49:46;;;;;;;146.30;50.65;;;9.70;99.90;;;;;;5072783;28;20105;-29
2022/11/15 07:52:12;;;;;;;147.45;52.22;;;9.70;99.90;;;;;;5073940;28;20055;-29
2022/11/15 07:54:38;;;;;;;138.95;50.42;;;9.90;99.90;;;;;;5073877;28;20040;-30
2022/11/15 07:57:04;;;;;;;134.55;48.50;;;9.80;99.90;;;;;;5072850;28;20076;-29
2022/11/15 07:59:30;;;;;;;124.72;49.97;;;9.80;99.90;;;;;;5073339;28;20372;-29
2022/11/15 08:01:56;;;;;;;127.05;49.70;;;9.90;99.90;;;;;;5072529;28;20044;-29
2022/11/15 08:04:22;;;;;;;135.15;48.00;;;9.90;99.90;;;;;;5073833;28;20047;-30
2022/11/15 08:06:47;;;;;;;126.38;49.13;;;9.90;99.90;;;;;;5073778;28;20052;-30
2022/11/15 08:09:13;;;;;;;120.65;49.08;;;9.90;99.90;;;;;;5072817;28;20414;-30
2022/11/15 08:11:39;;;;;;;107.30;46.55;;;10.00;99.90;;;;;;5073626;28;20040;-30
2022/11/15 08:14:04;;;;;;;125.53;49.72;;;10.00;99.90;;;;;;5073691;28;20056;-29
2022/11/15 08:16:30;;;;;;;110.70;47.50;;;10.10;99.90;;;;;;5073717;28;20051;-29
2022/11/15 08:18:56;;;;;;;104.50;46.28;;;10.10;99.90;;;;;;5073276;28;20459;-30
2022/11/15 08:21:22;;;;;;;98.05;44.10;;;10.20;99.90;;;;;;5072560;28;20084;-30
2022/11/15 08:23:48;;;;;;;98.28;44.20;;;10.10;99.90;;;;;;5073610;28;20047;-29
2022/11/15 08:26:14;;;;;;;95.93;43.25;;;10.10;99.90;;;;;;5073843;28;20048;-29
2022/11/15 08:28:40;;;;;;;91.70;41.10;;;10.10;99.90;;;;;;5073552;28;20037;-29
2022/11/15 08:31:06;;;;;;;87.05;41.25;;;10.30;99.90;;;;;;5074320;28;20463;-30
2022/11/15 08:33:35;;;;;;;77.30;39.65;;;10.30;99.90;;;;;;5072331;28;20508;-29
2022/11/15 08:36:01;;;;;;;92.70;40.65;;;10.50;99.90;;;;;;5076699;28;20048;-30
2022/11/15 08:38:28;;;;;;;83.03;39.85;;;10.40;99.90;;;;;;5077431;28;20045;-29
2022/11/15 08:41:02;;;;;;;86.35;40.22;;;10.50;99.90;;;;;;5077817;28;20048;-30
2022/11/15 08:43:27;;;;;;;67.30;37.72;;;10.60;99.90;;;;;;5077556;28;20509;-30
2022/11/15 08:45:56;;;;;;;67.43;37.42;;;10.80;99.90;;;;;;5044010;28;20052;-30
2022/11/15 08:48:22;;;;;;;59.78;35.30;;;10.80;99.90;;;;;;5077940;28;20040;-31
2022/11/15 08:50:48;;;;;;;61.47;34.13;;;11.00;99.90;;;;;;5077307;28;20088;-30
2022/11/15 08:53:14;;;;;;;53.47;33.03;;;11.00;99.90;;;;;;5076979;28;20137;-29
2022/11/15 08:55:40;;;;;;;57.63;32.17;;;11.10;99.90;;;;;;5076935;28;20047;-29
2022/11/15 08:58:06;;;;;;;50.85;33.15;;;11.10;99.90;;;;;;5076713;28;20447;-31
2022/11/15 09:00:33;;;;;;;51.10;31.65;;;11.20;99.90;;;;;;5077084;28;20091;-30
2022/11/15 09:02:59;;;;;;;45.90;27.95;;;11.30;99.90;;;;;;5077634;28;20051;-29
2022/11/15 09:05:25;;;;;;;50.35;30.73;;;11.20;99.90;;;;;;5077047;28;20044;-30
2022/11/15 09:07:55;;;;;;;47.20;28.40;;;11.20;99.90;;;;;;5075881;28;20040;-29
2022/11/15 09:10:21;;;;;;;42.47;26.67;;;11.20;99.90;;;;;;5076053;28;20368;-30
2022/11/15 09:12:48;;;;;;;43.97;27.23;;;11.10;99.90;;;;;;5076912;28;20045;-29
2022/11/15 09:15:15;;;;;;;43.55;26.58;;;11.10;99.90;;;;;;5077688;28;20059;-30
2022/11/15 09:17:41;;;;;;;41.83;26.08;;;11.10;99.90;;;;;;5076998;28;20532;-29
2022/11/15 09:20:07;;;;;;;39.08;26.42;;;11.10;99.90;;;;;;5058861;28;20056;-30
2022/11/15 09:22:33;;;;;;;39.55;26.00;;;11.00;99.90;;;;;;5077469;28;20072;-29
2022/11/15 09:24:59;;;;;;;42.65;26.13;;;11.00;99.90;;;;;;5076931;28;20474;-29
2022/11/15 09:27:29;;;;;;;37.75;24.92;;;11.10;99.90;;;;;;5077204;28;20051;-30
2022/11/15 09:29:55;;;;;;;40.03;25.15;;;11.20;99.90;;;;;;5076561;28;20055;-29
2022/11/15 09:32:22;;;;;;;37.53;24.70;;;11.30;99.90;;;;;;5076560;28;20045;-29
2022/11/15 09:34:48;;;;;;;33.50;23.50;;;11.30;99.90;;;;;;5075816;28;20055;-29
2022/11/15 09:37:14;;;;;;;37.30;23.02;;;11.30;99.90;;;;;;5076444;28;20056;-30
2022/11/15 09:39:39;;;;;;;32.83;21.92;;;11.30;99.90;;;;;;5075487;28;20044;-30
2022/11/15 09:42:29;;;;;;;29.85;21.83;;;11.30;99.90;;;;;;5058698;28;20049;-30
2022/11/15 09:45:22;;;;;;;35.72;21.35;;;11.20;99.90;;;;;;5076639;28;20114;-30
2022/11/15 09:48:25;;;;;;;36.22;22.98;;;11.20;99.90;;;;;;5076537;28;20040;-30
2022/11/15 09:50:58;;;;;;;31.50;23.43;;;11.20;99.90;;;;;;5075401;28;20425;-31
2022/11/15 09:53:38;;;;;;;29.52;23.67;;;11.30;99.90;;;;;;5076211;28;20060;-29
2022/11/15 09:56:15;;;;;;;35.60;23.48;;;11.40;99.90;;;;;;5076454;28;20044;-30
2022/11/15 09:59:05;;;;;;;30.45;22.73;;;11.50;99.90;;;;;;5076974;28;20094;-30
2022/11/15 10:01:56;;;;;;;34.72;21.83;;;11.50;99.90;;;;;;5075788;28;20526;-30
2022/11/15 10:04:23;;;;;;;30.00;22.33;;;11.60;99.90;;;;;;5075112;28;20545;-30
2022/11/15 10:07:20;;;;;;;30.13;20.85;;;11.70;99.90;;;;;;5076752;28;20072;-30
2022/11/15 10:10:10;;;;;;;32.92;20.90;;;11.70;99.90;;;;;;5074752;28;20052;-30
2022/11/15 10:12:36;;;;;;;31.00;20.92;;;11.70;99.90;;;;;;5075922;28;20102;-30
2022/11/15 10:15:06;;;;;;;32.15;20.00;;;11.70;99.90;;;;;;5074815;28;20041;-30
2022/11/15 10:17:50;;;;;;;32.03;20.13;;;11.80;99.90;;;;;;5075702;28;20141;-29
2022/11/15 10:20:28;;;;;;;27.17;19.23;;;11.80;99.90;;;;;;5074686;28;20130;-30
2022/11/15 10:23:00;;;;;;;30.13;19.13;;;11.80;99.90;;;;;;5075636;28;20063;-29
2022/11/15 10:25:31;;;;;;;28.50;17.92;;;11.80;99.90;;;;;;5074661;28;20478;-30
2022/11/15 10:28:14;;;;;;;29.63;18.17;;;11.90;99.90;;;;;;5074360;28;20106;-29
2022/11/15 10:30:45;;;;;;;28.35;19.98;;;12.00;99.90;;;;;;5076100;28;20056;-29
2022/11/15 10:33:26;;;;;;;25.38;17.58;;;12.10;99.90;;;;;;5076069;28;20041;-29
2022/11/15 10:36:21;;;;;;;25.67;18.80;;;12.20;99.90;;;;;;5074484;28;20505;-29
2022/11/15 10:38:50;;;;;;;24.15;17.02;;;12.20;99.90;;;;;;5074121;28;20047;-28
2022/11/15 10:41:31;;;;;;;23.48;15.63;;;12.30;99.90;;;;;;5075230;28;20052;-29
2022/11/15 10:44:19;;;;;;;26.55;16.77;;;12.50;99.90;;;;;;5075847;28;20056;-29
2022/11/15 10:47:05;;;;;;;24.75;16.38;;;12.60;99.90;;;;;;5075147;28;20052;-29
2022/11/15 10:49:33;;;;;;;26.58;16.35;;;12.60;99.90;;;;;;5075772;28;20048;-29
2022/11/15 10:52:08;;;;;;;25.27;15.88;;;12.50;99.90;;;;;;5075614;28;20524;-29
2022/11/15 10:54:44;;;;;;;22.38;16.35;;;12.50;99.90;;;;;;5075064;28;20131;-29
2022/11/15 10:57:33;;;;;;;23.30;16.17;;;12.40;99.90;;;;;;5073840;28;20044;-28
2022/11/15 11:00:21;;;;;;;25.38;15.68;;;12.40;99.90;;;;;;5075503;28;20110;-29
2022/11/15 11:03:03;;;;;;;25.50;15.85;;;12.40;99.90;;;;;;5074344;28;20102;-29
2022/11/15 11:05:34;;;;;;;20.45;15.07;;;12.40;99.90;;;;;;5074827;28;20044;-29
2022/11/15 11:08:22;;;;;;;23.20;15.02;;;12.50;99.90;;;;;;5074778;28;20037;-29
2022/11/15 11:10:59;;;;;;;23.70;16.17;;;12.50;99.90;;;;;;5074303;28;20078;-29
2022/11/15 11:13:25;;;;;;;22.00;14.35;;;12.60;99.90;;;;;;5074586;28;20501;-28
2022/11/15 11:16:15;;;;;;;19.35;13.85;;;12.70;99.90;;;;;;5074598;28;20048;-30
2022/11/15 11:19:16;;;;;;;21.08;14.15;;;12.70;99.90;;;;;;5074785;28;20390;-28
2022/11/15 11:22:04;;;;;;;18.77;12.65;;;12.70;99.90;;;;;;5074249;28;20045;-29
2022/11/15 11:24:47;;;;;;;18.35;13.20;;;12.60;99.90;;;;;;5075031;28;20413;-29
2022/11/15 11:27:34;;;;;;;24.85;13.43;;;12.50;99.90;;;;;;5075023;28;20045;-28
2022/11/15 11:30:02;;;;;;;18.55;12.32;;;12.50;99.90;;;;;;5074327;28;20044;-28
2022/11/15 11:32:42;;;;;;;13.95;11.80;;;12.40;99.90;;;;;;5075104;28;20071;-29
2022/11/15 11:35:45;;;;;;;17.60;11.65;;;12.50;99.90;;;;;;5074844;28;20044;-29
2022/11/15 11:38:10;;;;;;;12.90;9.55;;;12.70;99.90;;;;;;5075028;28;20052;-30
2022/11/15 11:41:01;;;;;;;14.32;9.75;;;12.70;99.90;;;;;;5074647;28;20368;-29
2022/11/15 11:44:20;;;;;;;13.35;9.95;;;12.80;99.90;;;;;;5074668;28;20040;-29
2022/11/15 11:47:18;;;;;;;14.68;9.20;;;12.90;99.90;;;;;;5051748;28;20044;-29
2022/11/15 11:49:54;;;;;;;14.80;9.40;;;12.90;99.90;;;;;;5074887;28;20097;-29
2022/11/15 11:52:30;;;;;;;11.98;8.38;;;12.90;99.90;;;;;;5057176;28;20052;-30
2022/11/15 11:55:04;;;;;;;14.38;8.80;;;12.90;99.90;;;;;;5073957;28;20048;-29
2022/11/15 11:57:46;;;;;;;14.55;9.43;;;12.70;99.90;;;;;;5073876;28;20475;-28
2022/11/15 12:00:14;;;;;;;13.48;8.52;;;12.70;99.90;;;;;;5074252;28;20052;-28
2022/11/15 12:03:01;;;;;;;13.82;7.60;;;12.70;99.90;;;;;;5074146;28;20051;-29
2022/11/15 12:05:32;;;;;;;10.95;6.53;;;12.60;99.90;;;;;;5073695;28;20044;-29
2022/11/15 12:08:24;;;;;;;11.18;6.55;;;12.50;99.90;;;;;;5073647;28;20076;-29
2022/11/15 12:11:00;;;;;;;11.40;7.07;;;12.50;99.90;;;;;;5074456;28;20124;-29
2022/11/15 12:13:29;;;;;;;12.55;6.55;;;12.50;99.90;;;;;;5073640;28;20049;-28
2022/11/15 12:16:12;;;;;;;8.43;4.55;;;12.60;99.90;;;;;;5073663;28;20044;-30
2022/11/15 12:18:38;;;;;;;;;;;12.90;99.90;;;;;;5074904;28;20048;-29
2022/11/15 12:21:43;;;;;;;10.45;3.75;;;13.50;99.90;;;;;;5072622;28;19924;-28
2022/11/15 12:24:25;;;;;;;4.53;3.42;;;13.60;99.90;;;;;;5072682;28;20478;-28
2022/11/15 12:27:13;;;;;;;5.72;2.90;;;13.80;99.90;;;;;;5074192;28;20045;-28
2022/11/15 12:29:48;;;;;;;5.75;2.53;;;13.60;99.90;;;;;;5066327;28;20060;-28
2022/11/15 12:32:26;;;;;;;7.03;2.42;;;13.40;72.10;;;;;;5073884;28;20453;-30
2022/11/15 12:34:53;;;;;;;5.57;2.47;;;13.20;99.90;;;;;;5073164;28;20441;-28
2022/11/15 12:37:43;;;;;;;6.50;1.83;;;13.00;1.00;;;;;;5073397;28;20048;-28
2022/11/15 12:40:09;;;;;;;6.85;1.65;;;12.90;1.00;;;;;;5074308;28;20128;-29
2022/11/15 12:42:41;;;;;;;6.00;1.60;;;12.90;49.70;;;;;;5072452;28;20462;-28
2022/11/15 12:45:44;;;;;;;6.72;2.08;;;12.90;99.90;;;;;;5073697;28;20044;-28
2022/11/15 12:48:16;;;;;;;6.25;2.13;;;13.00;1.00;;;;;;5018935;28;20049;-28
2022/11/15 12:50:53;;;;;;;5.53;2.35;;;13.00;99.90;;;;;;5065786;28;20060;-28
2022/11/15 12:53:25;;;;;;;4.88;2.17;;;13.10;99.90;;;;;;5073258;28;20080;-28
2022/11/15 12:56:12;;;;;;;8.20;3.10;;;13.30;99.90;;;;;;5072899;28;20483;-29
2022/11/15 12:58:47;;;;;;;5.97;2.13;;;13.30;1.00;;;;;;5073214;28;20080;-28
2022/11/15 13:01:33;;;;;;;10.15;2.33;;;13.10;1.00;;;;;;5072961;28;20483;-28
2022/11/15 13:04:18;;;;;;;7.78;2.03;;;13.10;99.90;;;;;;5071841;28;20390;-28
2022/11/15 13:07:04;;;;;;;6.15;1.95;;;13.50;99.90;;;;;;5073163;28;20078;-28
2022/11/15 13:09:36;;;;;;;5.72;2.10;;;14.00;99.90;;;;;;5072121;28;20532;-28
2022/11/15 13:12:26;;;;;;;5.43;1.88;;;14.20;99.90;;;;;;5073256;28;20044;-28